createdAt,value
2023-01-04T00:05:46.679Z,7.34
2023-01-04T00:19:24.758Z,7.30
2023-01-04T00:26:00.838Z,7.20
2023-01-04T00:39:34.354Z,6.88
2023-01-04T00:46:13.879Z,6.98
2023-01-04T00:52:30.866Z,6.98
2023-01-04T01:06:08.092Z,6.91
2023-01-04T01:12:35.734Z,6.74
2023-01-04T01:18:41.734Z,6.62
2023-01-04T01:24:39.780Z,6.46
2023-01-04T01:38:47.781Z,6.07
2023-01-04T01:43:46.254Z,6.33
2023-01-04T01:45:44.836Z,5.82
2023-01-04T01:59:59.373Z,5.48
2023-01-04T02:29:27.095Z,5.59
2023-01-04T02:58:07.625Z,6.28
2023-01-04T03:04:35.020Z,6.42
2023-01-04T03:11:29.765Z,6.41
2023-01-04T03:53:28.657Z,6.31
2023-01-04T04:02:00.099Z,6.26
2023-01-04T04:21:38.316Z,6.00
2023-01-04T04:34:44.469Z,5.76
2023-01-04T05:01:59.323Z,5.67
2023-01-04T05:16:05.378Z,5.44
2023-01-04T05:57:14.172Z,5.04
2023-01-04T06:12:13.978Z,4.86
2023-01-04T07:09:10.648Z,4.07
2023-01-04T07:38:58.115Z,4.12
2023-01-04T09:24:17.277Z,5.73
2023-01-04T09:30:10.472Z,6.00
2023-01-04T09:56:00.280Z,6.98
2023-01-04T10:24:01.855Z,7.83
2023-01-04T10:44:14.333Z,8.59
2023-01-04T10:51:19.157Z,8.92
2023-01-04T11:12:40.535Z,9.23
2023-01-04T11:32:40.380Z,9.58
2023-01-04T11:46:57.320Z,9.86
2023-01-04T11:52:39.110Z,9.95
2023-01-04T11:58:18.254Z,10.00
2023-01-04T12:04:11.099Z,10.08
2023-01-04T12:36:37.124Z,10.39
2023-01-04T12:50:07.623Z,10.54
2023-01-04T13:01:31.839Z,10.59
2023-01-04T13:07:42.667Z,10.56
2023-01-04T13:20:41.436Z,10.51
2023-01-04T13:26:18.237Z,10.48
2023-01-04T13:31:51.163Z,10.42
2023-01-04T13:38:34.942Z,10.39
2023-01-04T13:45:25.531Z,10.36
2023-01-04T13:51:36.976Z,10.28
2023-01-04T13:57:25.211Z,10.20
2023-01-04T14:03:25.084Z,10.14
2023-01-04T14:09:38.887Z,10.10
2023-01-04T14:16:06.252Z,10.10
2023-01-04T14:21:57.196Z,10.09
2023-01-04T14:27:59.764Z,10.07
2023-01-04T14:34:02.707Z,10.05
2023-01-04T14:39:33.132Z,10.02
2023-01-04T14:44:41.372Z,10.00
2023-01-04T14:50:46.483Z,9.96
2023-01-04T14:56:36.700Z,9.92
2023-01-04T15:03:03.338Z,9.89
2023-01-04T15:09:45.104Z,9.85
2023-01-04T15:15:45.694Z,9.80
2023-01-04T15:21:41.484Z,9.74
2023-01-04T15:27:48.651Z,9.66
2023-01-04T15:33:25.555Z,9.63
2023-01-04T15:38:49.297Z,9.60
2023-01-04T15:45:01.634Z,9.60
2023-01-04T15:51:19.522Z,9.56
2023-01-04T15:57:44.511Z,9.54
2023-01-04T16:03:24.140Z,9.48
2023-01-04T16:09:17.542Z,9.46
2023-01-04T16:14:52.871Z,9.44
2023-01-04T16:20:11.425Z,9.44
2023-01-04T16:26:37.448Z,9.42
2023-01-04T16:32:19.403Z,9.42
2023-01-04T16:46:15.284Z,9.42
2023-01-04T16:59:31.121Z,9.34
2023-01-04T17:38:40.635Z,9.39
2023-01-04T17:45:03.500Z,9.41
2023-01-04T17:51:34.987Z,9.44
2023-01-04T17:57:50.167Z,9.45
2023-01-04T18:04:04.056Z,9.45
2023-01-04T18:11:06.927Z,9.45
2023-01-04T18:17:18.634Z,9.46
2023-01-04T18:23:33.751Z,9.47
2023-01-04T18:29:08.451Z,9.50
2023-01-04T18:47:30.151Z,9.55
2023-01-04T18:53:59.353Z,9.56
2023-01-04T19:00:38.425Z,9.53
2023-01-04T19:06:26.481Z,9.54
2023-01-04T19:19:13.890Z,9.61
2023-01-04T19:26:48.886Z,9.63
2023-01-04T19:31:57.047Z,9.64
2023-01-04T19:46:14.535Z,9.64
2023-01-04T19:52:20.777Z,9.68
2023-01-04T19:58:31.267Z,9.74
2023-01-04T20:04:33.951Z,9.71
2023-01-04T20:09:57.589Z,9.71
2023-01-04T20:15:14.549Z,9.69
2023-01-04T20:20:41.319Z,9.69
2023-01-04T20:26:55.240Z,9.70
2023-01-04T20:32:30.015Z,9.71
2023-01-04T20:38:40.090Z,9.79
2023-01-04T20:43:59.850Z,9.85
2023-01-04T20:49:56.951Z,9.92
2023-01-04T20:55:40.293Z,10.01
2023-01-04T21:01:14.189Z,10.04
2023-01-04T21:07:11.907Z,10.04
2023-01-04T21:12:59.793Z,10.06
2023-01-04T21:19:01.354Z,10.08
2023-01-04T21:31:03.393Z,10.12
2023-01-04T21:37:31.192Z,10.15
2023-01-04T21:43:24.324Z,10.18
2023-01-04T21:49:44.766Z,10.17
2023-01-04T21:55:18.757Z,10.19
2023-01-04T22:01:38.219Z,10.21
2023-01-04T22:07:48.933Z,10.31
2023-01-04T22:13:34.248Z,10.38
2023-01-04T22:19:51.724Z,10.37
2023-01-04T22:26:23.779Z,10.33
2023-01-04T22:32:55.546Z,10.30
2023-01-04T22:39:23.541Z,10.31
2023-01-04T22:45:38.650Z,10.34
2023-01-04T22:52:02.145Z,10.38
2023-01-04T22:58:11.095Z,10.37
2023-01-04T23:04:25.089Z,10.48
2023-01-04T23:09:52.199Z,10.60
2023-01-04T23:15:30.577Z,10.66
2023-01-04T23:27:20.782Z,10.68
2023-01-04T23:33:57.189Z,10.68
2023-01-04T23:40:19.427Z,10.69
2023-01-04T23:45:48.739Z,10.71
2023-01-04T23:52:01.149Z,10.71
2023-01-04T23:57:47.551Z,10.78
